sensor_id;sensor_type;location;lat;lon;timestamp;pressure;altitude;pressure_sealevel;temperature;humidity
75991;BME280;64673;52.276;10.560;2023-07-16T00:01:43;100061.78;;;21.55;79.62
75991;BME280;64673;52.276;10.560;2023-07-16T00:04:08;100062.94;;;21.54;79.37
75991;BME280;64673;52.276;10.560;2023-07-16T00:06:34;100055.94;;;21.41;80.10
75991;BME280;64673;52.276;10.560;2023-07-16T00:08:59;100046.84;;;21.37;81.22
75991;BME280;64673;52.276;10.560;2023-07-16T00:11:24;100032.69;;;21.35;80.76
75991;BME280;64673;52.276;10.560;2023-07-16T00:13:50;100020.28;;;21.41;80.90
75991;BME280;64673;52.276;10.560;2023-07-16T00:16:15;100019.59;;;21.28;81.52
75991;BME280;64673;52.276;10.560;2023-07-16T00:18:46;100024.91;;;21.37;81.99
75991;BME280;64673;52.276;10.560;2023-07-16T00:21:12;100027.03;;;21.28;81.59
75991;BME280;64673;52.276;10.560;2023-07-16T00:23:37;100050.63;;;21.32;82.07
75991;BME280;64673;52.276;10.560;2023-07-16T00:26:02;100059.94;;;21.28;80.80
75991;BME280;64673;52.276;10.560;2023-07-16T00:28:29;100071.72;;;21.28;80.88
75991;BME280;64673;52.276;10.560;2023-07-16T00:30:54;100078.00;;;21.29;81.67
75991;BME280;64673;52.276;10.560;2023-07-16T00:33:20;100085.69;;;21.23;82.92
75991;BME280;64673;52.276;10.560;2023-07-16T00:35:49;100088.75;;;21.22;83.02
75991;BME280;64673;52.276;10.560;2023-07-16T00:38:16;100089.25;;;21.11;82.35
75991;BME280;64673;52.276;10.560;2023-07-16T00:40:42;100105.22;;;21.22;81.91
75991;BME280;64673;52.276;10.560;2023-07-16T00:43:07;100118.69;;;21.27;81.91
75991;BME280;64673;52.276;10.560;2023-07-16T00:45:32;100121.09;;;21.28;82.43
75991;BME280;64673;52.276;10.560;2023-07-16T00:47:58;100124.19;;;21.27;82.03
75991;BME280;64673;52.276;10.560;2023-07-16T00:50:23;100124.34;;;21.34;82.00
75991;BME280;64673;52.276;10.560;2023-07-16T00:52:49;100118.41;;;21.32;82.02
75991;BME280;64673;52.276;10.560;2023-07-16T00:55:14;100110.81;;;21.25;82.22
75991;BME280;64673;52.276;10.560;2023-07-16T00:57:40;100092.88;;;21.28;81.70
75991;BME280;64673;52.276;10.560;2023-07-16T01:00:06;100105.69;;;21.24;82.15
75991;BME280;64673;52.276;10.560;2023-07-16T01:02:31;100117.78;;;21.23;82.11
75991;BME280;64673;52.276;10.560;2023-07-16T01:04:57;100118.06;;;21.33;81.28
75991;BME280;64673;52.276;10.560;2023-07-16T01:07:25;100087.38;;;21.28;81.56
75991;BME280;64673;52.276;10.560;2023-07-16T01:09:53;100073.03;;;21.18;82.81
75991;BME280;64673;52.276;10.560;2023-07-16T01:12:21;100055.06;;;21.21;82.50
75991;BME280;64673;52.276;10.560;2023-07-16T01:14:47;100019.66;;;21.16;84.13
75991;BME280;64673;52.276;10.560;2023-07-16T01:17:12;99998.13;;;21.02;85.42
75991;BME280;64673;52.276;10.560;2023-07-16T01:19:38;100031.50;;;21.04;84.95
75991;BME280;64673;52.276;10.560;2023-07-16T01:22:32;100080.00;;;20.88;86.23
75991;BME280;64673;52.276;10.560;2023-07-16T01:25:05;100106.53;;;20.84;86.19
75991;BME280;64673;52.276;10.560;2023-07-16T01:30:15;100101.88;;;21.00;85.11
75991;BME280;64673;52.276;10.560;2023-07-16T01:32:44;100113.56;;;20.97;85.33
75991;BME280;64673;52.276;10.560;2023-07-16T01:35:10;100106.47;;;20.96;85.12
75991;BME280;64673;52.276;10.560;2023-07-16T01:37:36;100080.22;;;20.95;84.55
75991;BME280;64673;52.276;10.560;2023-07-16T01:40:02;100090.53;;;20.86;85.18
75991;BME280;64673;52.276;10.560;2023-07-16T01:42:28;100081.09;;;20.99;84.32
75991;BME280;64673;52.276;10.560;2023-07-16T01:44:53;100097.34;;;20.92;84.82
75991;BME280;64673;52.276;10.560;2023-07-16T01:49:53;100121.41;;;20.71;86.94
75991;BME280;64673;52.276;10.560;2023-07-16T01:52:19;100125.75;;;20.72;86.82
75991;BME280;64673;52.276;10.560;2023-07-16T01:54:44;100129.44;;;20.64;87.80
75991;BME280;64673;52.276;10.560;2023-07-16T01:57:10;100111.41;;;20.63;87.73
75991;BME280;64673;52.276;10.560;2023-07-16T01:59:35;100093.31;;;20.74;86.79
75991;BME280;64673;52.276;10.560;2023-07-16T02:02:00;100053.56;;;20.80;85.13
75991;BME280;64673;52.276;10.560;2023-07-16T02:04:26;100041.84;;;20.95;84.34
75991;BME280;64673;52.276;10.560;2023-07-16T02:06:51;100077.34;;;20.76;87.21
75991;BME280;64673;52.276;10.560;2023-07-16T02:09:16;100087.63;;;20.67;88.03
75991;BME280;64673;52.276;10.560;2023-07-16T02:11:42;100092.06;;;20.43;90.21
75991;BME280;64673;52.276;10.560;2023-07-16T02:14:07;100067.41;;;20.43;87.78
75991;BME280;64673;52.276;10.560;2023-07-16T02:16:32;100086.59;;;20.43;90.05
75991;BME280;64673;52.276;10.560;2023-07-16T02:18:58;100112.16;;;20.35;91.31
75991;BME280;64673;52.276;10.560;2023-07-16T02:21:23;100094.34;;;20.29;90.52
75991;BME280;64673;52.276;10.560;2023-07-16T02:23:48;100104.63;;;20.32;89.84
75991;BME280;64673;52.276;10.560;2023-07-16T02:26:14;100089.78;;;20.21;90.02
75991;BME280;64673;52.276;10.560;2023-07-16T02:28:39;100113.50;;;20.54;87.91
75991;BME280;64673;52.276;10.560;2023-07-16T02:31:04;100123.41;;;20.58;87.16
75991;BME280;64673;52.276;10.560;2023-07-16T02:33:30;100124.09;;;20.55;87.08
75991;BME280;64673;52.276;10.560;2023-07-16T02:35:55;100118.97;;;20.54;85.04
75991;BME280;64673;52.276;10.560;2023-07-16T02:38:20;100121.47;;;20.46;84.93
75991;BME280;64673;52.276;10.560;2023-07-16T02:40:47;100110.97;;;20.49;84.36
75991;BME280;64673;52.276;10.560;2023-07-16T02:43:14;100105.50;;;20.49;83.80
75991;BME280;64673;52.276;10.560;2023-07-16T02:45:39;100109.69;;;20.58;83.33
75991;BME280;64673;52.276;10.560;2023-07-16T02:48:05;100114.19;;;20.26;82.72
75991;BME280;64673;52.276;10.560;2023-07-16T02:50:35;100125.63;;;19.92;82.30
75991;BME280;64673;52.276;10.560;2023-07-16T02:53:01;100158.03;;;19.78;82.27
75991;BME280;64673;52.276;10.560;2023-07-16T02:55:27;100153.28;;;18.67;89.38
75991;BME280;64673;52.276;10.560;2023-07-16T02:57:52;100142.44;;;18.29;97.33
75991;BME280;64673;52.276;10.560;2023-07-16T03:00:17;100151.47;;;18.00;98.78
75991;BME280;64673;52.276;10.560;2023-07-16T03:02:43;100143.34;;;18.12;99.59
75991;BME280;64673;52.276;10.560;2023-07-16T03:05:08;100171.47;;;18.04;99.41
75991;BME280;64673;52.276;10.560;2023-07-16T03:07:33;100200.06;;;18.07;98.56
75991;BME280;64673;52.276;10.560;2023-07-16T03:09:59;100184.00;;;18.05;100.00
75991;BME280;64673;52.276;10.560;2023-07-16T03:12:28;100184.19;;;18.00;100.00
75991;BME280;64673;52.276;10.560;2023-07-16T03:14:53;100172.81;;;17.98;100.00
75991;BME280;64673;52.276;10.560;2023-07-16T03:17:20;100164.28;;;18.00;100.00
75991;BME280;64673;52.276;10.560;2023-07-16T03:19:47;100172.00;;;17.98;100.00
75991;BME280;64673;52.276;10.560;2023-07-16T03:22:12;100183.25;;;17.96;100.00
75991;BME280;64673;52.276;10.560;2023-07-16T03:24:38;100184.41;;;17.86;100.00
75991;BME280;64673;52.276;10.560;2023-07-16T03:27:03;100180.56;;;17.87;100.00
75991;BME280;64673;52.276;10.560;2023-07-16T03:29:29;100184.13;;;17.79;100.00
75991;BME280;64673;52.276;10.560;2023-07-16T03:31:54;100197.22;;;17.95;100.00
75991;BME280;64673;52.276;10.560;2023-07-16T03:34:19;100202.38;;;17.87;100.00
75991;BME280;64673;52.276;10.560;2023-07-16T03:36:46;100214.59;;;17.81;100.00
75991;BME280;64673;52.276;10.560;2023-07-16T03:39:11;100213.78;;;17.81;100.00
75991;BME280;64673;52.276;10.560;2023-07-16T03:41:36;100219.22;;;17.81;100.00
75991;BME280;64673;52.276;10.560;2023-07-16T03:44:02;100212.84;;;17.77;100.00
75991;BME280;64673;52.276;10.560;2023-07-16T03:46:27;100207.16;;;17.90;100.00
75991;BME280;64673;52.276;10.560;2023-07-16T03:48:53;100216.66;;;17.84;100.00
75991;BME280;64673;52.276;10.560;2023-07-16T03:51:18;100217.00;;;17.83;100.00
75991;BME280;64673;52.276;10.560;2023-07-16T03:53:46;100227.56;;;17.84;100.00
75991;BME280;64673;52.276;10.560;2023-07-16T03:56:12;100225.03;;;17.79;100.00
75991;BME280;64673;52.276;10.560;2023-07-16T03:58:37;100223.09;;;17.80;100.00
75991;BME280;64673;52.276;10.560;2023-07-16T04:01:02;100211.09;;;17.72;100.00
75991;BME280;64673;52.276;10.560;2023-07-16T04:03:28;100233.03;;;17.84;100.00
75991;BME280;64673;52.276;10.560;2023-07-16T04:06:01;100233.31;;;17.91;100.00
75991;BME280;64673;52.276;10.560;2023-07-16T04:08:27;100230.47;;;17.88;100.00
75991;BME280;64673;52.276;10.560;2023-07-16T04:10:52;100235.25;;;17.91;100.00
75991;BME280;64673;52.276;10.560;2023-07-16T04:13:17;100243.06;;;18.01;100.00
75991;BME280;64673;52.276;10.560;2023-07-16T04:15:43;100244.03;;;18.05;100.00
75991;BME280;64673;52.276;10.560;2023-07-16T04:18:08;100242.78;;;17.94;100.00
75991;BME280;64673;52.276;10.560;2023-07-16T04:20:33;100250.94;;;18.11;100.00
75991;BME280;64673;52.276;10.560;2023-07-16T04:22:59;100256.13;;;18.34;100.00
75991;BME280;64673;52.276;10.560;2023-07-16T04:25:24;100268.34;;;18.27;100.00
75991;BME280;64673;52.276;10.560;2023-07-16T04:27:49;100254.72;;;18.27;100.00
75991;BME280;64673;52.276;10.560;2023-07-16T04:30:15;100266.44;;;18.28;100.00
75991;BME280;64673;52.276;10.560;2023-07-16T04:32:40;100271.09;;;18.27;100.00
75991;BME280;64673;52.276;10.560;2023-07-16T04:35:06;100279.00;;;18.20;100.00
75991;BME280;64673;52.276;10.560;2023-07-16T04:37:31;100289.56;;;18.31;100.00
75991;BME280;64673;52.276;10.560;2023-07-16T04:39:56;100294.53;;;18.28;100.00
75991;BME280;64673;52.276;10.560;2023-07-16T04:42:22;100296.25;;;18.33;100.00
75991;BME280;64673;52.276;10.560;2023-07-16T04:44:47;100295.19;;;18.25;100.00
75991;BME280;64673;52.276;10.560;2023-07-16T04:47:12;100297.78;;;18.22;100.00
75991;BME280;64673;52.276;10.560;2023-07-16T04:49:37;100300.34;;;18.18;100.00
75991;BME280;64673;52.276;10.560;2023-07-16T04:52:03;100310.91;;;18.28;100.00
75991;BME280;64673;52.276;10.560;2023-07-16T04:54:29;100310.38;;;18.35;100.00
75991;BME280;64673;52.276;10.560;2023-07-16T04:56:54;100311.44;;;18.22;100.00
75991;BME280;64673;52.276;10.560;2023-07-16T04:59:19;100327.47;;;18.15;100.00
75991;BME280;64673;52.276;10.560;2023-07-16T05:01:45;100329.56;;;18.18;100.00
75991;BME280;64673;52.276;10.560;2023-07-16T05:04:10;100331.47;;;18.26;98.26
75991;BME280;64673;52.276;10.560;2023-07-16T05:06:35;100331.28;;;18.40;95.23
75991;BME280;64673;52.276;10.560;2023-07-16T05:09:00;100330.16;;;18.41;95.41
75991;BME280;64673;52.276;10.560;2023-07-16T05:11:26;100332.03;;;18.49;95.36
75991;BME280;64673;52.276;10.560;2023-07-16T05:13:51;100336.38;;;18.50;94.58
75991;BME280;64673;52.276;10.560;2023-07-16T05:16:16;100334.44;;;18.50;94.85
75991;BME280;64673;52.276;10.560;2023-07-16T05:18:42;100338.81;;;18.43;93.83
75991;BME280;64673;52.276;10.560;2023-07-16T05:21:07;100337.84;;;18.39;93.71
75991;BME280;64673;52.276;10.560;2023-07-16T05:23:32;100341.56;;;18.34;93.92
75991;BME280;64673;52.276;10.560;2023-07-16T05:25:58;100346.88;;;18.31;95.41
75991;BME280;64673;52.276;10.560;2023-07-16T05:28:24;100340.59;;;18.39;94.18
75991;BME280;64673;52.276;10.560;2023-07-16T05:31:02;100344.91;;;18.40;94.23
75991;BME280;64673;52.276;10.560;2023-07-16T05:33:27;100351.31;;;18.44;94.15
75991;BME280;64673;52.276;10.560;2023-07-16T05:35:53;100349.91;;;18.38;92.81
75991;BME280;64673;52.276;10.560;2023-07-16T05:38:18;100348.13;;;18.42;93.47
75991;BME280;64673;52.276;10.560;2023-07-16T05:40:44;100350.34;;;18.48;89.86
75991;BME280;64673;52.276;10.560;2023-07-16T05:43:09;100346.16;;;18.51;90.88
75991;BME280;64673;52.276;10.560;2023-07-16T05:45:36;100356.88;;;18.56;92.07
75991;BME280;64673;52.276;10.560;2023-07-16T05:48:01;100349.50;;;18.56;89.58
75991;BME280;64673;52.276;10.560;2023-07-16T05:50:26;100364.75;;;18.66;89.41
75991;BME280;64673;52.276;10.560;2023-07-16T05:52:51;100363.78;;;18.71;89.07
75991;BME280;64673;52.276;10.560;2023-07-16T05:55:17;100365.50;;;18.75;87.87
75991;BME280;64673;52.276;10.560;2023-07-16T05:57:42;100363.78;;;18.71;89.51
75991;BME280;64673;52.276;10.560;2023-07-16T06:00:08;100361.66;;;18.76;87.83
75991;BME280;64673;52.276;10.560;2023-07-16T06:02:34;100370.97;;;18.84;87.15
75991;BME280;64673;52.276;10.560;2023-07-16T06:04:59;100373.69;;;18.84;85.94
75991;BME280;64673;52.276;10.560;2023-07-16T06:07:24;100375.09;;;18.90;85.67
75991;BME280;64673;52.276;10.560;2023-07-16T06:09:50;100391.66;;;18.93;87.14
75991;BME280;64673;52.276;10.560;2023-07-16T06:12:15;100380.50;;;18.98;84.03
75991;BME280;64673;52.276;10.560;2023-07-16T06:14:40;100388.53;;;19.04;83.30
75991;BME280;64673;52.276;10.560;2023-07-16T06:17:06;100390.63;;;19.07;84.13
75991;BME280;64673;52.276;10.560;2023-07-16T06:19:31;100390.25;;;19.17;81.91
75991;BME280;64673;52.276;10.560;2023-07-16T06:21:56;100389.28;;;19.13;83.37
75991;BME280;64673;52.276;10.560;2023-07-16T06:24:22;100394.75;;;19.13;82.17
75991;BME280;64673;52.276;10.560;2023-07-16T06:26:47;100397.75;;;19.20;82.64
75991;BME280;64673;52.276;10.560;2023-07-16T06:29:13;100394.19;;;19.28;79.70
75991;BME280;64673;52.276;10.560;2023-07-16T06:31:38;100404.44;;;19.31;80.60
75991;BME280;64673;52.276;10.560;2023-07-16T06:34:04;100399.66;;;19.28;81.52
75991;BME280;64673;52.276;10.560;2023-07-16T06:36:29;100403.47;;;19.35;80.12
75991;BME280;64673;52.276;10.560;2023-07-16T06:38:54;100409.03;;;19.39;79.10
75991;BME280;64673;52.276;10.560;2023-07-16T06:41:20;100408.06;;;19.44;80.15
75991;BME280;64673;52.276;10.560;2023-07-16T06:43:45;100415.09;;;19.53;79.54
75991;BME280;64673;52.276;10.560;2023-07-16T06:46:10;100412.50;;;19.57;79.44
75991;BME280;64673;52.276;10.560;2023-07-16T06:48:36;100424.72;;;19.59;79.64
75991;BME280;64673;52.276;10.560;2023-07-16T06:51:01;100427.00;;;19.57;78.61
75991;BME280;64673;52.276;10.560;2023-07-16T06:53:26;100423.13;;;19.58;80.04
75991;BME280;64673;52.276;10.560;2023-07-16T06:55:52;100427.19;;;19.73;78.27
75991;BME280;64673;52.276;10.560;2023-07-16T06:58:17;100426.84;;;19.74;77.52
75991;BME280;64673;52.276;10.560;2023-07-16T07:00:42;100428.59;;;19.79;77.71
75991;BME280;64673;52.276;10.560;2023-07-16T07:03:08;100432.59;;;19.82;78.05
75991;BME280;64673;52.276;10.560;2023-07-16T07:05:33;100432.16;;;19.80;77.29
75991;BME280;64673;52.276;10.560;2023-07-16T07:08:01;100424.59;;;19.77;78.19
75991;BME280;64673;52.276;10.560;2023-07-16T07:10:26;100437.78;;;19.95;77.90
75991;BME280;64673;52.276;10.560;2023-07-16T07:12:52;100433.25;;;19.99;76.22
75991;BME280;64673;52.276;10.560;2023-07-16T07:15:17;100442.44;;;20.16;75.74
75991;BME280;64673;52.276;10.560;2023-07-16T07:17:43;100436.31;;;20.19;72.48
75991;BME280;64673;52.276;10.560;2023-07-16T07:20:12;100436.78;;;20.21;74.26
75991;BME280;64673;52.276;10.560;2023-07-16T07:22:37;100438.94;;;20.27;75.00
75991;BME280;64673;52.276;10.560;2023-07-16T07:25:03;100433.91;;;20.50;74.41
75991;BME280;64673;52.276;10.560;2023-07-16T07:27:29;100429.06;;;20.35;72.63
75991;BME280;64673;52.276;10.560;2023-07-16T07:29:54;100442.44;;;20.36;72.65
75991;BME280;64673;52.276;10.560;2023-07-16T07:32:21;100432.56;;;20.23;70.68
75991;BME280;64673;52.276;10.560;2023-07-16T07:34:46;100435.03;;;20.16;71.04
75991;BME280;64673;52.276;10.560;2023-07-16T07:37:12;100442.63;;;20.31;70.61
75991;BME280;64673;52.276;10.560;2023-07-16T07:39:37;100444.56;;;20.31;71.76
75991;BME280;64673;52.276;10.560;2023-07-16T07:42:03;100442.22;;;20.41;69.84
75991;BME280;64673;52.276;10.560;2023-07-16T07:44:28;100436.28;;;20.39;68.57
75991;BME280;64673;52.276;10.560;2023-07-16T07:46:53;100442.31;;;20.66;63.79
75991;BME280;64673;52.276;10.560;2023-07-16T07:49:19;100433.28;;;20.65;64.30
75991;BME280;64673;52.276;10.560;2023-07-16T07:51:44;100437.84;;;20.73;65.28
75991;BME280;64673;52.276;10.560;2023-07-16T07:54:09;100438.91;;;20.93;62.76
75991;BME280;64673;52.276;10.560;2023-07-16T07:56:35;100443.09;;;20.78;61.14
75991;BME280;64673;52.276;10.560;2023-07-16T07:59:00;100436.81;;;20.78;59.31
75991;BME280;64673;52.276;10.560;2023-07-16T08:01:25;100438.44;;;20.91;62.04
75991;BME280;64673;52.276;10.560;2023-07-16T08:03:52;100432.03;;;20.99;59.63
75991;BME280;64673;52.276;10.560;2023-07-16T08:06:17;100441.41;;;20.98;60.08
75991;BME280;64673;52.276;10.560;2023-07-16T08:08:42;100431.81;;;21.04;58.30
75991;BME280;64673;52.276;10.560;2023-07-16T08:11:08;100448.16;;;21.13;57.54
75991;BME280;64673;52.276;10.560;2023-07-16T08:13:33;100440.84;;;21.17;56.52
75991;BME280;64673;52.276;10.560;2023-07-16T08:15:58;100441.44;;;21.23;54.80
75991;BME280;64673;52.276;10.560;2023-07-16T08:18:24;100445.56;;;21.29;54.97
75991;BME280;64673;52.276;10.560;2023-07-16T08:20:49;100442.34;;;21.39;56.41
75991;BME280;64673;52.276;10.560;2023-07-16T08:23:14;100456.53;;;21.29;55.67
75991;BME280;64673;52.276;10.560;2023-07-16T08:25:40;100441.91;;;21.37;53.44
75991;BME280;64673;52.276;10.560;2023-07-16T08:28:05;100446.38;;;21.29;54.45
75991;BME280;64673;52.276;10.560;2023-07-16T08:30:32;100455.38;;;21.42;55.15
75991;BME280;64673;52.276;10.560;2023-07-16T08:32:58;100456.28;;;21.46;55.06
75991;BME280;64673;52.276;10.560;2023-07-16T08:35:23;100454.69;;;21.45;56.10
75991;BME280;64673;52.276;10.560;2023-07-16T08:37:48;100461.75;;;21.70;55.95
75991;BME280;64673;52.276;10.560;2023-07-16T08:40:14;100462.88;;;21.81;56.19
75991;BME280;64673;52.276;10.560;2023-07-16T08:42:40;100461.81;;;21.86;52.44
75991;BME280;64673;52.276;10.560;2023-07-16T08:45:10;100472.00;;;21.73;52.86
75991;BME280;64673;52.276;10.560;2023-07-16T08:47:36;100466.97;;;21.75;54.18
75991;BME280;64673;52.276;10.560;2023-07-16T08:50:02;100468.09;;;21.86;54.78
75991;BME280;64673;52.276;10.560;2023-07-16T08:52:29;100462.88;;;21.81;53.26
75991;BME280;64673;52.276;10.560;2023-07-16T08:54:54;100464.72;;;21.65;54.43
75991;BME280;64673;52.276;10.560;2023-07-16T08:57:21;100476.84;;;21.52;53.73
75991;BME280;64673;52.276;10.560;2023-07-16T08:59:50;100467.06;;;21.27;54.40
75991;BME280;64673;52.276;10.560;2023-07-16T09:02:20;100470.09;;;21.13;55.34
75991;BME280;64673;52.276;10.560;2023-07-16T09:04:49;100473.84;;;21.08;56.53
75991;BME280;64673;52.276;10.560;2023-07-16T09:07:16;100472.28;;;21.07;55.92
75991;BME280;64673;52.276;10.560;2023-07-16T09:09:42;100466.78;;;21.07;52.95
75991;BME280;64673;52.276;10.560;2023-07-16T09:12:11;100475.00;;;21.68;54.28
75991;BME280;64673;52.276;10.560;2023-07-16T09:14:37;100484.38;;;21.67;50.89
75991;BME280;64673;52.276;10.560;2023-07-16T09:17:03;100469.38;;;21.77;52.35
75991;BME280;64673;52.276;10.560;2023-07-16T09:19:31;100475.19;;;21.87;52.28
75991;BME280;64673;52.276;10.560;2023-07-16T09:21:57;100483.88;;;22.02;51.91
75991;BME280;64673;52.276;10.560;2023-07-16T09:24:22;100469.00;;;21.90;52.87
75991;BME280;64673;52.276;10.560;2023-07-16T09:26:54;100462.81;;;22.06;53.19
75991;BME280;64673;52.276;10.560;2023-07-16T09:29:24;100463.00;;;22.41;51.30
75991;BME280;64673;52.276;10.560;2023-07-16T09:31:57;100465.75;;;22.41;50.71
75991;BME280;64673;52.276;10.560;2023-07-16T09:34:23;100465.59;;;22.49;51.48
75991;BME280;64673;52.276;10.560;2023-07-16T09:36:49;100468.09;;;22.54;52.44
75991;BME280;64673;52.276;10.560;2023-07-16T09:39:16;100476.34;;;22.54;50.03
75991;BME280;64673;52.276;10.560;2023-07-16T09:41:44;100481.28;;;22.49;52.31
75991;BME280;64673;52.276;10.560;2023-07-16T09:44:10;100477.88;;;22.40;51.74
75991;BME280;64673;52.276;10.560;2023-07-16T09:46:36;100479.31;;;22.34;51.75
75991;BME280;64673;52.276;10.560;2023-07-16T09:49:01;100490.13;;;22.42;51.03
75991;BME280;64673;52.276;10.560;2023-07-16T09:51:29;100486.28;;;22.31;49.33
75991;BME280;64673;52.276;10.560;2023-07-16T09:53:55;100487.91;;;22.32;49.59
75991;BME280;64673;52.276;10.560;2023-07-16T09:56:24;100487.13;;;22.47;50.73
75991;BME280;64673;52.276;10.560;2023-07-16T09:58:55;100499.84;;;22.68;49.55
75991;BME280;64673;52.276;10.560;2023-07-16T10:01:21;100489.06;;;22.75;46.78
75991;BME280;64673;52.276;10.560;2023-07-16T10:03:50;100500.28;;;22.97;46.76
75991;BME280;64673;52.276;10.560;2023-07-16T10:06:15;100485.25;;;22.79;46.53
75991;BME280;64673;52.276;10.560;2023-07-16T10:08:49;100498.84;;;23.04;49.57
75991;BME280;64673;52.276;10.560;2023-07-16T10:11:18;100498.69;;;22.96;48.04
75991;BME280;64673;52.276;10.560;2023-07-16T10:13:49;100488.03;;;22.95;47.59
75991;BME280;64673;52.276;10.560;2023-07-16T10:16:22;100499.91;;;22.99;45.80
75991;BME280;64673;52.276;10.560;2023-07-16T10:18:52;100505.56;;;22.75;45.20
75991;BME280;64673;52.276;10.560;2023-07-16T10:21:24;100501.34;;;22.93;44.91
75991;BME280;64673;52.276;10.560;2023-07-16T10:23:57;100518.91;;;23.04;43.67
75991;BME280;64673;52.276;10.560;2023-07-16T10:26:27;100507.25;;;22.79;44.83
75991;BME280;64673;52.276;10.560;2023-07-16T10:28:54;100503.63;;;22.91;45.62
75991;BME280;64673;52.276;10.560;2023-07-16T10:31:25;100495.66;;;22.86;44.66
75991;BME280;64673;52.276;10.560;2023-07-16T10:34:01;100502.94;;;23.10;43.48
75991;BME280;64673;52.276;10.560;2023-07-16T10:36:26;100489.44;;;23.20;44.59
75991;BME280;64673;52.276;10.560;2023-07-16T10:38:51;100503.91;;;23.33;45.66
75991;BME280;64673;52.276;10.560;2023-07-16T10:41:17;100513.22;;;23.60;43.88
75991;BME280;64673;52.276;10.560;2023-07-16T10:43:42;100504.22;;;23.79;46.86
75991;BME280;64673;52.276;10.560;2023-07-16T10:46:09;100509.97;;;23.89;44.41
75991;BME280;64673;52.276;10.560;2023-07-16T10:48:34;100500.69;;;23.97;45.73
75991;BME280;64673;52.276;10.560;2023-07-16T10:51:00;100505.38;;;23.97;45.37
75991;BME280;64673;52.276;10.560;2023-07-16T10:53:25;100515.50;;;24.28;46.04
75991;BME280;64673;52.276;10.560;2023-07-16T10:55:50;100514.09;;;23.99;43.66
75991;BME280;64673;52.276;10.560;2023-07-16T10:58:16;100506.94;;;23.59;43.82
75991;BME280;64673;52.276;10.560;2023-07-16T11:00:41;100509.94;;;23.70;43.94
75991;BME280;64673;52.276;10.560;2023-07-16T11:03:07;100509.31;;;23.45;44.85
75991;BME280;64673;52.276;10.560;2023-07-16T11:05:33;100499.50;;;23.79;43.84
75991;BME280;64673;52.276;10.560;2023-07-16T11:07:59;100508.44;;;23.57;47.15
75991;BME280;64673;52.276;10.560;2023-07-16T11:10:28;100507.16;;;23.70;41.32
75991;BME280;64673;52.276;10.560;2023-07-16T11:12:54;100507.91;;;23.86;43.20
75991;BME280;64673;52.276;10.560;2023-07-16T11:15:35;100498.38;;;23.99;42.20
75991;BME280;64673;52.276;10.560;2023-07-16T11:18:01;100512.94;;;24.19;40.68
75991;BME280;64673;52.276;10.560;2023-07-16T11:20:27;100524.22;;;23.95;42.18
75991;BME280;64673;52.276;10.560;2023-07-16T11:22:57;100513.88;;;23.88;40.23
75991;BME280;64673;52.276;10.560;2023-07-16T11:25:24;100513.84;;;23.53;40.77
75991;BME280;64673;52.276;10.560;2023-07-16T11:27:54;100520.09;;;23.85;42.93
75991;BME280;64673;52.276;10.560;2023-07-16T11:30:22;100507.88;;;23.67;42.38
75991;BME280;64673;52.276;10.560;2023-07-16T11:32:48;100514.59;;;23.50;42.95
75991;BME280;64673;52.276;10.560;2023-07-16T11:35:18;100506.63;;;23.80;40.89
75991;BME280;64673;52.276;10.560;2023-07-16T11:37:44;100514.00;;;23.95;41.53
75991;BME280;64673;52.276;10.560;2023-07-16T11:40:11;100514.25;;;24.06;40.93
75991;BME280;64673;52.276;10.560;2023-07-16T11:42:40;100523.78;;;24.28;43.47
75991;BME280;64673;52.276;10.560;2023-07-16T11:45:17;100515.34;;;24.59;43.54
75991;BME280;64673;52.276;10.560;2023-07-16T11:47:43;100524.97;;;24.69;42.91
75991;BME280;64673;52.276;10.560;2023-07-16T11:50:08;100525.19;;;24.79;42.10
75991;BME280;64673;52.276;10.560;2023-07-16T11:52:34;100521.31;;;24.42;41.11
75991;BME280;64673;52.276;10.560;2023-07-16T11:54:59;100524.44;;;24.40;40.72
75991;BME280;64673;52.276;10.560;2023-07-16T11:57:25;100532.28;;;24.38;39.38
75991;BME280;64673;52.276;10.560;2023-07-16T11:59:51;100519.59;;;24.34;39.99
75991;BME280;64673;52.276;10.560;2023-07-16T12:02:16;100525.69;;;24.24;40.58
75991;BME280;64673;52.276;10.560;2023-07-16T12:04:42;100526.59;;;24.51;41.78
75991;BME280;64673;52.276;10.560;2023-07-16T12:07:07;100524.13;;;24.65;40.52
75991;BME280;64673;52.276;10.560;2023-07-16T12:09:33;100524.38;;;24.56;39.27
75991;BME280;64673;52.276;10.560;2023-07-16T12:11:59;100527.25;;;24.63;41.26
75991;BME280;64673;52.276;10.560;2023-07-16T12:14:24;100532.06;;;24.66;41.11
75991;BME280;64673;52.276;10.560;2023-07-16T12:16:50;100529.13;;;24.59;40.30
75991;BME280;64673;52.276;10.560;2023-07-16T12:19:15;100532.91;;;24.70;40.45
75991;BME280;64673;52.276;10.560;2023-07-16T12:21:41;100529.81;;;24.53;39.33
75991;BME280;64673;52.276;10.560;2023-07-16T12:24:06;100519.34;;;24.62;39.92
75991;BME280;64673;52.276;10.560;2023-07-16T12:26:31;100521.63;;;25.21;40.77
75991;BME280;64673;52.276;10.560;2023-07-16T12:28:57;100522.13;;;24.85;39.58
75991;BME280;64673;52.276;10.560;2023-07-16T12:31:22;100534.53;;;24.52;40.26
75991;BME280;64673;52.276;10.560;2023-07-16T12:33:48;100529.25;;;24.24;38.28
75991;BME280;64673;52.276;10.560;2023-07-16T12:36:14;100532.28;;;24.58;40.02
75991;BME280;64673;52.276;10.560;2023-07-16T12:38:39;100532.53;;;25.14;39.65